createdAt,value
2018-08-08T00:06:26.299Z,28.80
2018-08-08T00:08:54.550Z,28.70
2018-08-08T00:11:22.807Z,28.70
2018-08-08T00:13:51.064Z,28.70
2018-08-08T00:16:19.341Z,28.70
2018-08-08T00:18:47.621Z,28.70
2018-08-08T00:21:15.915Z,28.60
2018-08-08T00:23:44.196Z,28.70
2018-08-08T00:26:12.545Z,28.60
2018-08-08T00:28:40.832Z,28.60
2018-08-08T00:31:09.103Z,28.60
2018-08-08T00:33:37.412Z,28.70
2018-08-08T00:36:05.734Z,28.50
2018-08-08T00:41:02.090Z,28.50
2018-08-08T00:43:30.374Z,28.50
2018-08-08T00:45:58.725Z,28.40
2018-08-08T00:48:27.022Z,28.40
2018-08-08T00:50:55.304Z,28.30
2018-08-08T00:53:23.659Z,28.30
2018-08-08T00:55:51.990Z,28.30
2018-08-08T00:58:20.276Z,28.20
2018-08-08T01:00:48.564Z,28.20
2018-08-08T01:03:16.862Z,28.10
2018-08-08T01:05:45.172Z,28.10
2018-08-08T01:08:13.515Z,28.10
2018-08-08T01:10:41.796Z,28.00
2018-08-08T01:13:10.053Z,28.10
2018-08-08T01:15:38.387Z,28.10
2018-08-08T01:18:06.999Z,28.10
2018-08-08T01:20:35.304Z,27.70
2018-08-08T01:23:03.584Z,27.70
2018-08-08T01:25:31.836Z,27.70
2018-08-08T01:28:00.144Z,27.80
2018-08-08T01:30:28.420Z,28.10
2018-08-08T01:32:56.996Z,28.20
2018-08-08T01:35:25.270Z,28.40
2018-08-08T01:37:53.552Z,28.50
2018-08-08T01:40:21.818Z,28.60
2018-08-08T01:42:50.035Z,28.70
2018-08-08T01:45:18.768Z,28.80
2018-08-08T01:47:47.416Z,28.90
2018-08-08T01:50:16.538Z,29.00
2018-08-08T01:52:44.814Z,28.90
2018-08-08T01:55:13.988Z,29.00
2018-08-08T01:57:42.286Z,29.00
2018-08-08T02:00:13.130Z,28.90
2018-08-08T02:02:41.906Z,29.00
2018-08-08T02:05:10.555Z,29.00
2018-08-08T02:07:39.007Z,29.10
2018-08-08T02:10:09.935Z,29.10
2018-08-08T02:12:38.362Z,29.10
2018-08-08T02:15:09.100Z,29.10
2018-08-08T02:17:37.393Z,29.10
2018-08-08T02:20:06.275Z,29.20
2018-08-08T02:22:34.612Z,29.20
2018-08-08T02:25:02.921Z,29.20
2018-08-08T02:27:31.261Z,29.20
2018-08-08T02:29:59.525Z,29.20
2018-08-08T02:32:27.824Z,29.00
2018-08-08T02:34:56.147Z,29.00
2018-08-08T02:37:24.981Z,29.00
2018-08-08T02:39:53.133Z,29.00
2018-08-08T02:42:21.424Z,29.00
2018-08-08T02:44:49.728Z,29.00
2018-08-08T02:47:17.991Z,29.00
2018-08-08T02:52:14.309Z,28.80
2018-08-08T02:54:42.666Z,28.60
2018-08-08T02:57:10.884Z,28.40
2018-08-08T03:02:07.142Z,28.00
2018-08-08T03:04:35.362Z,27.90
2018-08-08T03:07:03.824Z,27.80
2018-08-08T03:09:32.101Z,27.50
2018-08-08T03:12:00.446Z,27.20
2018-08-08T03:14:29.624Z,27.00
2018-08-08T03:16:57.930Z,26.70
2018-08-08T03:19:26.207Z,26.50
2018-08-08T03:21:54.498Z,26.20
2018-08-08T03:24:22.756Z,26.00
2018-08-08T03:29:19.071Z,25.50
2018-08-08T03:31:47.317Z,25.40
2018-08-08T03:34:15.622Z,25.40
2018-08-08T03:36:43.887Z,25.50
2018-08-08T03:39:12.171Z,25.40
2018-08-08T03:41:40.436Z,25.20
2018-08-08T03:44:08.737Z,25.20
2018-08-08T03:46:37.056Z,25.30
2018-08-08T03:49:06.297Z,25.40
2018-08-08T03:51:34.659Z,25.30
2018-08-08T03:54:02.948Z,25.40
2018-08-08T03:56:31.254Z,25.50
2018-08-08T03:58:59.599Z,25.60
2018-08-08T04:03:55.855Z,25.60
2018-08-08T04:06:24.146Z,25.60
2018-08-08T04:08:52.466Z,25.50
2018-08-08T04:11:20.758Z,25.40
2018-08-08T04:13:49.000Z,25.30
2018-08-08T04:16:17.344Z,25.40
2018-08-08T04:18:45.995Z,25.50
2018-08-08T04:21:14.260Z,25.20
2018-08-08T04:23:42.551Z,25.10
2018-08-08T04:26:10.851Z,25.20
2018-08-08T04:28:39.166Z,25.00
2018-08-08T04:31:07.619Z,24.90
2018-08-08T04:33:35.808Z,24.70
2018-08-08T04:41:00.056Z,24.40
2018-08-08T04:43:28.394Z,24.10
2018-08-08T04:45:56.605Z,23.90
2018-08-08T04:48:24.877Z,23.80
2018-08-08T04:50:53.266Z,23.80
2018-08-08T04:53:21.495Z,23.90
2018-08-08T04:55:49.849Z,23.90
2018-08-08T04:58:18.071Z,23.30
2018-08-08T05:00:46.380Z,22.90
2018-08-08T05:03:14.721Z,22.30
2018-08-08T05:08:11.046Z,21.90
2018-08-08T05:10:39.310Z,21.90
2018-08-08T05:13:07.672Z,22.00
2018-08-08T05:15:36.642Z,21.90
2018-08-08T05:18:04.956Z,22.00
2018-08-08T05:20:33.263Z,22.20
2018-08-08T05:23:01.843Z,22.20
2018-08-08T05:25:30.149Z,22.30
2018-08-08T05:27:58.420Z,22.10
2018-08-08T05:30:26.684Z,22.00
2018-08-08T05:32:55.019Z,22.00
2018-08-08T05:35:23.211Z,22.10
2018-08-08T05:37:51.511Z,22.20
2018-08-08T05:42:50.461Z,22.50
2018-08-08T05:45:18.851Z,22.60
2018-08-08T05:47:48.488Z,22.70
2018-08-08T05:50:16.790Z,22.80
2018-08-08T05:52:45.112Z,22.80
2018-08-08T05:55:14.612Z,22.70
2018-08-08T05:57:43.259Z,22.90
2018-08-08T06:00:30.398Z,22.80
2018-08-08T06:02:58.733Z,22.90
2018-08-08T06:07:56.142Z,22.90
2018-08-08T06:10:24.378Z,23.00
2018-08-08T06:12:52.714Z,23.00
2018-08-08T06:15:21.060Z,23.00
2018-08-08T06:17:49.323Z,23.10
2018-08-08T06:20:19.764Z,23.40
2018-08-08T06:22:48.651Z,23.40
2018-08-08T06:25:17.255Z,23.50
2018-08-08T06:27:45.829Z,23.50
2018-08-08T06:30:17.521Z,23.50
2018-08-08T06:32:45.913Z,23.70
2018-08-08T06:35:15.547Z,23.90
2018-08-08T06:40:12.619Z,24.00
2018-08-08T06:42:41.192Z,24.20
2018-08-08T06:45:11.309Z,24.20
2018-08-08T06:50:08.941Z,24.90
2018-08-08T06:52:37.823Z,25.00
2018-08-08T06:55:07.283Z,25.40
2018-08-08T06:57:35.601Z,25.60
2018-08-08T07:00:05.438Z,25.70
2018-08-08T07:02:33.693Z,25.20
2018-08-08T07:05:01.992Z,25.10
2018-08-08T07:07:30.300Z,24.70
2018-08-08T07:09:58.615Z,24.70
2018-08-08T07:12:26.871Z,24.70
2018-08-08T07:14:55.118Z,24.70
2018-08-08T07:17:23.419Z,25.00
2018-08-08T07:19:51.699Z,25.40
2018-08-08T07:22:19.980Z,25.90
2018-08-08T07:24:48.266Z,26.60
2018-08-08T07:27:16.561Z,27.20
2018-08-08T07:29:44.812Z,27.80
2018-08-08T07:32:13.066Z,28.30
2018-08-08T07:37:10.133Z,28.90
2018-08-08T07:39:38.360Z,29.40
2018-08-08T07:42:06.716Z,29.60
2018-08-08T07:44:35.019Z,29.90
2018-08-08T07:47:03.388Z,30.30
2018-08-08T07:49:31.715Z,31.10
2018-08-08T07:51:59.974Z,31.80
2018-08-08T07:54:28.256Z,32.10
2018-08-08T07:56:56.484Z,32.80
2018-08-08T07:59:24.735Z,31.80
2018-08-08T08:01:53.599Z,31.10
2018-08-08T08:04:21.904Z,30.20
2018-08-08T08:06:50.170Z,30.10
2018-08-08T08:09:18.429Z,30.40
2018-08-08T08:11:46.676Z,30.40
2018-08-08T08:14:14.960Z,30.00
2018-08-08T08:16:43.221Z,30.20
2018-08-08T08:19:11.481Z,30.70
2018-08-08T08:21:39.804Z,31.00
2018-08-08T08:24:08.171Z,31.00
2018-08-08T08:26:36.484Z,31.10
2018-08-08T08:29:04.828Z,31.50
2018-08-08T08:32:02.726Z,31.90
2018-08-08T08:34:31.010Z,32.50
2018-08-08T08:36:59.284Z,32.80
2018-08-08T08:39:27.548Z,32.10
2018-08-08T08:41:55.821Z,32.20
2018-08-08T08:44:24.117Z,32.30
2018-08-08T08:46:52.384Z,31.50
2018-08-08T08:49:20.664Z,30.80
2018-08-08T08:51:48.905Z,30.40
2018-08-08T08:54:17.212Z,29.80
2018-08-08T08:56:45.462Z,29.40
2018-08-08T08:59:13.726Z,29.10
2018-08-08T09:01:42.028Z,28.70
2018-08-08T09:04:10.324Z,28.70
2018-08-08T09:06:38.603Z,28.40
2018-08-08T09:09:09.446Z,28.40
2018-08-08T09:11:37.699Z,28.30
2018-08-08T09:14:06.009Z,28.30
2018-08-08T09:16:34.307Z,28.30
2018-08-08T09:19:02.552Z,27.90
2018-08-08T09:21:30.854Z,28.00
2018-08-08T09:23:59.120Z,27.90
2018-08-08T09:26:27.390Z,27.80
2018-08-08T09:28:55.624Z,27.60
2018-08-08T09:31:24.225Z,27.70
2018-08-08T09:33:52.483Z,27.90
2018-08-08T09:36:20.747Z,27.80
2018-08-08T09:38:49.038Z,29.40
2018-08-08T09:41:17.377Z,29.80
2018-08-08T09:43:45.663Z,31.70
2018-08-08T09:46:13.898Z,31.70
2018-08-08T09:48:42.120Z,31.10
2018-08-08T09:51:10.716Z,30.80
2018-08-08T09:53:39.028Z,30.00
2018-08-08T09:56:07.588Z,29.40
2018-08-08T09:58:35.872Z,28.90
2018-08-08T10:01:09.598Z,29.00
2018-08-08T10:03:40.986Z,28.50
2018-08-08T10:06:09.288Z,28.30
2018-08-08T10:08:37.546Z,28.30
2018-08-08T10:11:05.876Z,28.50
2018-08-08T10:13:34.179Z,28.60
2018-08-08T10:16:02.423Z,28.50
2018-08-08T10:18:30.731Z,28.20
2018-08-08T10:20:59.006Z,28.20
2018-08-08T10:23:27.243Z,28.30
2018-08-08T10:25:55.485Z,28.10
2018-08-08T10:28:23.772Z,27.90
2018-08-08T10:30:52.036Z,27.70
2018-08-08T10:33:20.315Z,27.50
2018-08-08T10:35:48.544Z,27.40
2018-08-08T10:38:16.845Z,27.50
2018-08-08T10:40:45.119Z,27.50
2018-08-08T10:43:13.444Z,27.60
2018-08-08T10:45:41.668Z,27.70
2018-08-08T10:48:09.894Z,27.90
2018-08-08T10:50:38.143Z,27.90
2018-08-08T10:53:06.512Z,28.10
2018-08-08T10:55:34.835Z,28.30
2018-08-08T10:58:03.090Z,28.40
2018-08-08T11:00:31.348Z,28.30
2018-08-08T11:02:59.636Z,28.80
2018-08-08T11:05:27.900Z,30.60
2018-08-08T11:07:56.159Z,30.80
2018-08-08T11:10:24.463Z,31.00
2018-08-08T11:12:52.726Z,31.60
2018-08-08T11:15:20.979Z,30.80
2018-08-08T11:17:49.226Z,30.30
2018-08-08T11:20:17.564Z,30.10
2018-08-08T11:22:45.818Z,29.70
2018-08-08T11:25:14.071Z,29.70
2018-08-08T11:27:42.327Z,30.30
2018-08-08T11:30:10.603Z,33.00
2018-08-08T11:32:38.859Z,34.40
2018-08-08T11:35:07.095Z,34.60
2018-08-08T11:37:35.319Z,34.30
2018-08-08T11:40:03.612Z,34.60
2018-08-08T11:42:31.829Z,36.40
2018-08-08T11:45:00.100Z,37.00
2018-08-08T11:47:28.348Z,37.10
2018-08-08T11:49:56.594Z,37.90
2018-08-08T11:52:24.904Z,38.10
2018-08-08T11:54:53.160Z,38.50
2018-08-08T11:57:21.423Z,37.10
2018-08-08T11:59:49.672Z,36.00
2018-08-08T12:02:17.912Z,34.70
2018-08-08T12:04:46.201Z,34.10
2018-08-08T12:07:14.484Z,32.60
2018-08-08T12:09:42.724Z,32.20
2018-08-08T12:12:11.581Z,31.70
2018-08-08T12:14:39.818Z,31.20
2018-08-08T12:17:08.101Z,32.30
2018-08-08T12:19:36.412Z,33.60
2018-08-08T12:22:05.098Z,34.30
2018-08-08T12:24:33.354Z,33.10
2018-08-08T12:27:01.585Z,32.20
2018-08-08T12:29:29.823Z,32.70
2018-08-08T12:31:58.089Z,33.70
2018-08-08T12:34:26.467Z,33.40
2018-08-08T12:36:54.658Z,32.00
2018-08-08T12:39:22.970Z,32.90
2018-08-08T12:41:51.174Z,33.20
2018-08-08T12:44:19.458Z,34.20
2018-08-08T12:46:47.723Z,34.40
2018-08-08T12:49:15.983Z,35.60
2018-08-08T12:51:44.282Z,35.80
2018-08-08T12:54:12.559Z,35.90
2018-08-08T12:56:40.798Z,35.10
2018-08-08T12:59:09.108Z,33.20
2018-08-08T13:01:37.374Z,31.80
2018-08-08T13:04:05.701Z,32.10
2018-08-08T13:06:33.965Z,31.70
2018-08-08T13:09:02.236Z,33.70
2018-08-08T13:11:30.533Z,33.40
2018-08-08T13:13:58.861Z,33.00
2018-08-08T13:16:27.038Z,33.60
2018-08-08T13:18:55.319Z,33.50
2018-08-08T13:21:23.565Z,34.30
2018-08-08T13:23:53.006Z,34.40
2018-08-08T13:26:21.230Z,34.30
2018-08-08T13:28:49.464Z,34.30
2018-08-08T13:31:17.996Z,34.80
2018-08-08T13:33:46.255Z,34.90
2018-08-08T13:36:14.565Z,34.30
2018-08-08T13:38:42.807Z,33.50
2018-08-08T13:41:11.030Z,33.90
2018-08-08T13:43:39.324Z,33.50
2018-08-08T13:46:07.670Z,33.70
2018-08-08T13:48:35.986Z,33.50
2018-08-08T13:51:04.271Z,33.00
2018-08-08T13:53:32.605Z,32.50
2018-08-08T13:56:00.910Z,32.20
2018-08-08T13:58:29.148Z,31.30
2018-08-08T14:00:57.445Z,30.90
2018-08-08T14:03:25.697Z,30.70
2018-08-08T14:05:53.948Z,30.50
2018-08-08T14:08:23.206Z,30.40
2018-08-08T14:10:51.459Z,30.40
2018-08-08T14:13:19.931Z,30.10
2018-08-08T14:15:48.212Z,30.10
2018-08-08T14:18:16.483Z,30.10
2018-08-08T14:20:44.834Z,29.70
2018-08-08T14:23:13.000Z,29.70
2018-08-08T14:25:41.298Z,30.20
2018-08-08T14:28:10.249Z,30.10
2018-08-08T14:30:38.499Z,30.20
2018-08-08T14:33:06.774Z,30.00
2018-08-08T14:35:35.048Z,30.00
2018-08-08T14:38:03.276Z,29.90
2018-08-08T14:40:32.196Z,30.10
2018-08-08T14:43:00.461Z,30.10
2018-08-08T14:45:28.987Z,30.10
2018-08-08T14:47:57.262Z,29.90
2018-08-08T14:50:26.526Z,30.10
2018-08-08T14:52:54.799Z,30.30
2018-08-08T14:55:23.064Z,30.10
2018-08-08T14:57:51.338Z,30.10
2018-08-08T15:00:19.513Z,30.10
2018-08-08T15:02:47.784Z,29.90
2018-08-08T15:05:15.984Z,30.10
2018-08-08T15:07:44.312Z,30.00
2018-08-08T15:10:12.600Z,30.20
2018-08-08T15:12:40.830Z,30.10
2018-08-08T15:15:10.218Z,30.40
2018-08-08T15:17:38.532Z,30.20
2018-08-08T15:20:07.079Z,30.20
2018-08-08T15:22:35.420Z,30.20
2018-08-08T15:25:04.567Z,30.30
2018-08-08T15:27:32.849Z,30.40
2018-08-08T15:30:01.114Z,30.50
2018-08-08T15:32:29.335Z,30.20
2018-08-08T15:34:57.592Z,30.10
2018-08-08T15:37:26.344Z,30.10
2018-08-08T15:39:54.167Z,30.20
2018-08-08T15:42:22.410Z,30.30
2018-08-08T15:44:50.695Z,29.90
2018-08-08T15:47:18.958Z,29.60
2018-08-08T15:49:47.232Z,29.40
2018-08-08T15:52:15.748Z,29.60
2018-08-08T15:54:44.065Z,29.60
2018-08-08T15:57:12.295Z,29.60
2018-08-08T15:59:40.539Z,29.80
2018-08-08T16:02:08.777Z,30.00
2018-08-08T16:04:37.072Z,29.60
2018-08-08T16:07:05.459Z,29.60
2018-08-08T16:09:33.732Z,29.40
2018-08-08T16:12:02.015Z,29.30
2018-08-08T16:14:30.310Z,29.00
2018-08-08T16:16:58.695Z,28.90
2018-08-08T16:19:27.442Z,29.00
2018-08-08T16:21:55.669Z,29.10
2018-08-08T16:24:23.925Z,28.90
2018-08-08T16:26:52.195Z,28.80
2018-08-08T16:29:20.454Z,29.00
2018-08-08T16:31:48.732Z,28.70
2018-08-08T16:34:16.986Z,28.70
2018-08-08T16:36:45.217Z,28.80
2018-08-08T16:39:13.506Z,28.40
2018-08-08T16:41:41.775Z,28.40
2018-08-08T16:44:10.188Z,28.50
2018-08-08T16:46:38.433Z,28.50
2018-08-08T16:49:06.723Z,28.40
2018-08-08T16:51:34.939Z,28.30
2018-08-08T16:54:03.300Z,28.20
2018-08-08T16:56:31.532Z,28.00
2018-08-08T16:58:59.816Z,28.00
2018-08-08T17:01:28.067Z,27.80
2018-08-08T17:03:56.400Z,27.70
2018-08-08T17:06:24.635Z,27.70
2018-08-08T17:08:52.899Z,27.80
2018-08-08T17:11:21.324Z,27.70
2018-08-08T17:13:49.610Z,27.50
2018-08-08T17:16:17.904Z,27.60
2018-08-08T17:18:46.149Z,27.70
2018-08-08T17:21:14.404Z,27.90
2018-08-08T17:23:42.673Z,27.70
2018-08-08T17:26:10.959Z,27.60
2018-08-08T17:28:39.247Z,27.50
2018-08-08T17:31:07.556Z,27.30
2018-08-08T17:33:36.035Z,27.50
2018-08-08T17:36:04.364Z,27.80
2018-08-08T17:38:32.663Z,27.80
2018-08-08T17:41:01.014Z,27.70
2018-08-08T17:43:29.604Z,27.60
2018-08-08T17:45:57.582Z,27.30
2018-08-08T17:48:26.100Z,27.30
2018-08-08T17:50:54.352Z,27.30
2018-08-08T17:53:22.716Z,27.40
2018-08-08T17:55:51.035Z,27.40
2018-08-08T17:58:19.287Z,27.20
2018-08-08T18:00:47.576Z,27.20
2018-08-08T18:03:15.795Z,27.20
2018-08-08T18:05:44.132Z,27.10
2018-08-08T18:08:19.168Z,27.10
2018-08-08T18:10:48.445Z,27.10
2018-08-08T18:13:16.727Z,27.10
2018-08-08T18:15:45.063Z,27.20
2018-08-08T18:18:13.240Z,27.20
2018-08-08T18:20:41.508Z,26.80
2018-08-08T18:23:09.791Z,26.60
2018-08-08T18:25:38.055Z,26.70
2018-08-08T18:28:06.333Z,26.70
2018-08-08T18:30:34.606Z,26.70
2018-08-08T18:33:02.888Z,26.60
2018-08-08T18:35:31.165Z,26.50
2018-08-08T18:37:59.513Z,26.30
2018-08-08T18:40:27.628Z,26.30
2018-08-08T18:42:55.867Z,26.30
2018-08-08T18:45:24.182Z,26.10
2018-08-08T18:47:52.477Z,26.00
2018-08-08T18:50:20.733Z,25.80
2018-08-08T18:52:48.963Z,25.90
2018-08-08T18:55:17.272Z,26.00
2018-08-08T18:57:45.572Z,25.90
2018-08-08T19:00:13.852Z,25.90
2018-08-08T19:02:42.140Z,25.80
2018-08-08T19:05:10.443Z,25.90
2018-08-08T19:07:38.776Z,25.80
2018-08-08T19:10:07.513Z,25.80
2018-08-08T19:12:36.686Z,25.70
2018-08-08T19:15:05.326Z,25.60
2018-08-08T19:17:33.840Z,25.70
2018-08-08T19:20:02.145Z,25.70
2018-08-08T19:22:30.451Z,25.70
2018-08-08T19:24:58.730Z,25.80
2018-08-08T19:27:27.099Z,25.60
2018-08-08T19:29:55.372Z,25.40
2018-08-08T19:32:23.663Z,25.30
2018-08-08T19:34:51.889Z,25.20
2018-08-08T19:37:20.138Z,25.20
2018-08-08T19:39:48.361Z,25.20
2018-08-08T19:42:16.602Z,25.30
2018-08-08T19:44:44.862Z,25.30
2018-08-08T19:47:13.873Z,25.10
2018-08-08T19:49:42.131Z,25.00
2018-08-08T19:52:10.520Z,25.00
2018-08-08T19:54:38.891Z,25.00
2018-08-08T19:57:07.157Z,25.00
2018-08-08T19:59:35.456Z,24.90
2018-08-08T20:02:03.800Z,24.90
2018-08-08T20:04:32.124Z,24.90
2018-08-08T20:07:00.387Z,24.90
2018-08-08T20:09:28.661Z,24.80
2018-08-08T20:11:56.987Z,24.70
2018-08-08T20:14:25.910Z,24.80
2018-08-08T20:16:54.208Z,24.80
2018-08-08T20:19:22.446Z,24.80
2018-08-08T20:21:50.752Z,24.70
2018-08-08T20:24:19.007Z,24.60
2018-08-08T20:26:47.323Z,24.70
2018-08-08T20:29:16.289Z,24.70
2018-08-08T20:31:44.538Z,24.70
2018-08-08T20:34:12.777Z,24.80
2018-08-08T20:36:41.013Z,24.80
2018-08-08T20:39:09.919Z,24.80
2018-08-08T20:41:38.617Z,24.80
2018-08-08T20:44:07.519Z,24.90
2018-08-08T20:46:35.866Z,24.80
2018-08-08T20:49:04.167Z,24.90
2018-08-08T20:51:32.436Z,24.90
2018-08-08T20:54:00.699Z,25.00
2018-08-08T20:56:28.966Z,24.90
2018-08-08T20:58:57.237Z,24.90
2018-08-08T21:01:25.490Z,24.90
2018-08-08T21:03:53.771Z,24.90
2018-08-08T21:06:21.994Z,24.90
2018-08-08T21:08:50.669Z,24.80
2018-08-08T21:11:18.940Z,24.70
2018-08-08T21:13:47.234Z,24.70
2018-08-08T21:16:15.509Z,24.60
2018-08-08T21:18:43.771Z,24.70
2018-08-08T21:21:12.105Z,24.60
2018-08-08T21:23:40.433Z,24.50
2018-08-08T21:26:08.756Z,24.40
2018-08-08T21:28:37.061Z,24.40
2018-08-08T21:31:05.299Z,24.40
2018-08-08T21:33:33.576Z,24.30
2018-08-08T21:36:01.857Z,24.30
2018-08-08T21:38:30.608Z,24.30
2018-08-08T21:40:59.079Z,24.20
2018-08-08T21:43:27.546Z,24.30
2018-08-08T21:45:55.826Z,24.30
2018-08-08T21:48:24.165Z,24.20
2018-08-08T21:50:52.601Z,24.20
2018-08-08T21:53:31.072Z,24.10
2018-08-08T21:56:10.826Z,24.10
2018-08-08T21:58:50.544Z,24.00
2018-08-08T22:01:30.366Z,24.00
2018-08-08T22:04:10.190Z,23.90
2018-08-08T22:06:49.846Z,23.80
2018-08-08T22:10:29.218Z,23.70
2018-08-08T22:13:08.957Z,23.70
2018-08-08T22:15:48.539Z,23.60
2018-08-08T22:18:27.996Z,23.40
2018-08-08T22:20:56.208Z,23.30
2018-08-08T22:23:24.471Z,23.20
2018-08-08T22:25:52.800Z,23.30
2018-08-08T22:28:21.083Z,23.30
2018-08-08T22:30:49.377Z,23.30
2018-08-08T22:33:17.667Z,23.30
2018-08-08T22:35:45.926Z,23.20
2018-08-08T22:38:14.227Z,23.20
2018-08-08T22:40:42.532Z,23.10
2018-08-08T22:43:10.823Z,23.20
2018-08-08T22:45:39.152Z,23.10
2018-08-08T22:48:08.027Z,22.90
2018-08-08T22:50:36.738Z,22.90
2018-08-08T22:53:05.126Z,23.00
2018-08-08T22:55:33.388Z,22.90
2018-08-08T22:58:01.612Z,22.90
2018-08-08T23:00:29.905Z,22.80
2018-08-08T23:02:58.214Z,22.70
2018-08-08T23:05:26.476Z,22.60
2018-08-08T23:07:54.723Z,22.70
2018-08-08T23:10:23.010Z,22.60
2018-08-08T23:12:51.276Z,22.60
2018-08-08T23:15:19.516Z,22.60
2018-08-08T23:17:47.808Z,22.60
2018-08-08T23:20:16.112Z,22.50
2018-08-08T23:22:51.367Z,22.50
2018-08-08T23:25:19.855Z,22.50
2018-08-08T23:27:48.537Z,22.40
2018-08-08T23:30:16.791Z,22.40
2018-08-08T23:32:45.169Z,22.30
2018-08-08T23:35:13.674Z,22.30
2018-08-08T23:37:42.266Z,22.20
2018-08-08T23:40:11.570Z,22.20
2018-08-08T23:42:39.963Z,22.20
2018-08-08T23:45:09.041Z,22.20
2018-08-08T23:47:37.383Z,22.10
2018-08-08T23:50:06.131Z,22.10
2018-08-08T23:52:34.986Z,22.10
2018-08-08T23:55:03.297Z,22.20
2018-08-08T23:57:31.600Z,22.10
2018-08-08T23:59:59.904Z,22.10
